Brookline, New Hampshire
Current Conditions -  °F | °C
As of 12:52 PM on Wednesday 28 Jan 2015 (Local Time) from KFIT Reporting Station
Clear Clear  
Wind Chill: -12°   Ceiling: Unl
Heat Index: -5°   Visibility: 10mi
Dew Point: -14°   Wind: 13mph
Humidity: 50%   Direction: 340°NNW
Pressure: 29.96"   Gusts: 22mph
Location:  42.73°N, 71.66°W
Report Text: KFIT 281752Z AUTO 34011G19KT 10SM CLR M05/M14 A2996 RMK AO2 SLP153 T10501139 11050 21111 55003
Loading
Personal Weather Stations






























Interactive Weather Map New forecast layout! Learn more

10-Day Weather Forecast

Advertisements
Track Severe Weather on mobile